CheckWX is a tool to help pilots better visualize weather data.  It is not intended as a substitute for an official pre-flight weather briefing.

14:31:29 UTC

KRHI METAR
Rhinelander-Oneida County Airport
Rhinelander, Wisconsin, USA
Current

38 mins ago

KRHI 251353Z AUTO 24003KT 10SM FEW120 11/06 A2976 RMK AO2 SLP080 T01110061
Observed
Apr-25 @ 13:53 UTC
Wind
  • 240° at 3 KTS
Visibility
10 SM
Flight Rules
VFR
Cloud Levels
  • Few at 12,000' AGL
Temperature
11°C / 52°F
Dewpoint
C / 43°F
Humidity
72%
Altimeter
29.76" Hg
Pressure
1007.82 hPa
Previous

2 hours ago

KRHI 251253Z AUTO 24006KT 10SM SCT120 11/06 A2976 RMK AO2 SLP077 T01110061
Observed
Apr-25 @ 12:53 UTC
Wind
  • 240° at 6 KTS
Visibility
10 SM
Flight Rules
VFR
Cloud Levels
  • Scattered at 12,000' AGL
Temperature
11°C / 52°F
Dewpoint
C / 43°F
Humidity
72%
Altimeter
29.76" Hg
Pressure
1007.82 hPa
Previous

3 hours ago

KRHI 251153Z AUTO 24004KT 10SM CLR 10/06 A2975 RMK AO2 SLP074 60000 T01000056 10133 20078 53007
Observed
Apr-25 @ 11:53 UTC
Wind
  • 240° at 4 KTS
Visibility
10 SM
Flight Rules
VFR
Cloud Levels
  • Clear skies
Temperature
10°C / 50°F
Dewpoint
C / 43°F
Humidity
76%
Altimeter
29.75" Hg
Pressure
1007.42 hPa